sensor_id;sensor_type;location;lat;lon;timestamp;P1;durP1;ratioP1;P2;durP2;ratioP2
51260;SDS011;61705;46.228;24.812;2022-11-28T00:01:27;63.42;;;29.15;;
51260;SDS011;61705;46.228;24.812;2022-11-28T00:06:20;65.32;;;29.27;;
51260;SDS011;61705;46.228;24.812;2022-11-28T00:08:47;62.45;;;28.30;;
51260;SDS011;61705;46.228;24.812;2022-11-28T00:11:17;63.05;;;28.23;;
51260;SDS011;61705;46.228;24.812;2022-11-28T00:13:44;61.63;;;26.75;;
51260;SDS011;61705;46.228;24.812;2022-11-28T00:16:13;62.28;;;28.33;;
51260;SDS011;61705;46.228;24.812;2022-11-28T00:18:42;71.18;;;29.60;;
51260;SDS011;61705;46.228;24.812;2022-11-28T00:21:11;66.80;;;28.38;;
51260;SDS011;61705;46.228;24.812;2022-11-28T00:23:39;73.93;;;32.15;;
51260;SDS011;61705;46.228;24.812;2022-11-28T00:26:17;68.95;;;30.23;;
51260;SDS011;61705;46.228;24.812;2022-11-28T00:28:48;82.38;;;31.42;;
51260;SDS011;61705;46.228;24.812;2022-11-28T00:31:16;72.63;;;30.25;;
51260;SDS011;61705;46.228;24.812;2022-11-28T00:33:47;67.85;;;29.08;;
51260;SDS011;61705;46.228;24.812;2022-11-28T00:36:14;69.50;;;30.45;;
51260;SDS011;61705;46.228;24.812;2022-11-28T00:38:41;68.10;;;29.73;;
51260;SDS011;61705;46.228;24.812;2022-11-28T00:41:09;65.93;;;27.50;;
51260;SDS011;61705;46.228;24.812;2022-11-28T00:43:39;54.10;;;24.25;;
51260;SDS011;61705;46.228;24.812;2022-11-28T00:46:06;66.47;;;30.45;;
51260;SDS011;61705;46.228;24.812;2022-11-28T00:48:34;66.75;;;30.35;;
51260;SDS011;61705;46.228;24.812;2022-11-28T00:51:08;69.68;;;31.42;;
51260;SDS011;61705;46.228;24.812;2022-11-28T00:53:37;74.18;;;33.85;;
51260;SDS011;61705;46.228;24.812;2022-11-28T00:56:11;68.88;;;29.42;;
51260;SDS011;61705;46.228;24.812;2022-11-28T00:58:40;68.85;;;28.60;;
51260;SDS011;61705;46.228;24.812;2022-11-28T01:03:39;72.03;;;31.90;;
51260;SDS011;61705;46.228;24.812;2022-11-28T01:06:07;75.90;;;33.92;;
51260;SDS011;61705;46.228;24.812;2022-11-28T01:08:35;68.88;;;30.05;;
51260;SDS011;61705;46.228;24.812;2022-11-28T01:11:09;73.45;;;31.38;;
51260;SDS011;61705;46.228;24.812;2022-11-28T01:13:38;71.35;;;30.98;;
51260;SDS011;61705;46.228;24.812;2022-11-28T01:16:05;69.88;;;30.67;;
51260;SDS011;61705;46.228;24.812;2022-11-28T01:18:33;75.60;;;32.30;;
51260;SDS011;61705;46.228;24.812;2022-11-28T01:21:00;63.13;;;28.60;;
51260;SDS011;61705;46.228;24.812;2022-11-28T01:23:27;71.68;;;29.48;;
51260;SDS011;61705;46.228;24.812;2022-11-28T01:25:54;74.13;;;32.50;;
51260;SDS011;61705;46.228;24.812;2022-11-28T01:28:20;69.25;;;32.28;;
51260;SDS011;61705;46.228;24.812;2022-11-28T01:30:47;69.40;;;29.85;;
51260;SDS011;61705;46.228;24.812;2022-11-28T01:33:14;64.88;;;28.27;;
51260;SDS011;61705;46.228;24.812;2022-11-28T01:35:40;62.50;;;27.85;;
51260;SDS011;61705;46.228;24.812;2022-11-28T01:38:07;68.85;;;29.10;;
51260;SDS011;61705;46.228;24.812;2022-11-28T01:40:34;62.38;;;27.33;;
51260;SDS011;61705;46.228;24.812;2022-11-28T01:43:01;58.38;;;26.25;;
51260;SDS011;61705;46.228;24.812;2022-11-28T01:45:28;63.47;;;27.83;;
51260;SDS011;61705;46.228;24.812;2022-11-28T01:47:59;64.30;;;28.95;;
51260;SDS011;61705;46.228;24.812;2022-11-28T01:50:28;61.90;;;28.85;;
51260;SDS011;61705;46.228;24.812;2022-11-28T01:52:59;63.92;;;28.10;;
51260;SDS011;61705;46.228;24.812;2022-11-28T01:55:30;66.25;;;29.17;;
51260;SDS011;61705;46.228;24.812;2022-11-28T01:58:00;59.47;;;27.42;;
51260;SDS011;61705;46.228;24.812;2022-11-28T02:00:27;60.72;;;26.33;;
51260;SDS011;61705;46.228;24.812;2022-11-28T02:05:36;66.97;;;28.73;;
51260;SDS011;61705;46.228;24.812;2022-11-28T02:08:04;60.45;;;27.75;;
51260;SDS011;61705;46.228;24.812;2022-11-28T02:10:33;66.80;;;26.77;;
51260;SDS011;61705;46.228;24.812;2022-11-28T02:13:37;63.78;;;27.33;;
51260;SDS011;61705;46.228;24.812;2022-11-28T02:18:46;58.60;;;24.70;;
51260;SDS011;61705;46.228;24.812;2022-11-28T02:30:17;52.03;;;24.58;;
51260;SDS011;61705;46.228;24.812;2022-11-28T02:38:14;57.30;;;24.95;;
51260;SDS011;61705;46.228;24.812;2022-11-28T02:41:07;53.80;;;23.15;;
51260;SDS011;61705;46.228;24.812;2022-11-28T02:44:27;54.88;;;23.88;;
51260;SDS011;61705;46.228;24.812;2022-11-28T02:46:35;58.20;;;24.48;;
51260;SDS011;61705;46.228;24.812;2022-11-28T02:52:08;39.30;;;18.50;;
51260;SDS011;61705;46.228;24.812;2022-11-28T02:54:40;52.45;;;21.83;;
51260;SDS011;61705;46.228;24.812;2022-11-28T02:57:09;52.60;;;21.55;;
51260;SDS011;61705;46.228;24.812;2022-11-28T03:02:10;59.20;;;21.50;;
51260;SDS011;61705;46.228;24.812;2022-11-28T03:18:37;48.70;;;21.15;;
51260;SDS011;61705;46.228;24.812;2022-11-28T03:23:40;48.50;;;22.02;;
51260;SDS011;61705;46.228;24.812;2022-11-28T03:28:56;60.08;;;22.67;;
51260;SDS011;61705;46.228;24.812;2022-11-28T03:31:44;55.47;;;21.88;;
51260;SDS011;61705;46.228;24.812;2022-11-28T03:34:16;67.53;;;26.92;;
51260;SDS011;61705;46.228;24.812;2022-11-28T03:36:48;55.15;;;24.05;;
51260;SDS011;61705;46.228;24.812;2022-11-28T03:39:24;65.07;;;26.90;;
51260;SDS011;61705;46.228;24.812;2022-11-28T03:41:59;61.97;;;25.50;;
51260;SDS011;61705;46.228;24.812;2022-11-28T03:44:47;70.72;;;27.02;;
51260;SDS011;61705;46.228;24.812;2022-11-28T03:47:14;72.07;;;27.38;;
51260;SDS011;61705;46.228;24.812;2022-11-28T03:49:42;71.93;;;26.90;;
51260;SDS011;61705;46.228;24.812;2022-11-28T03:52:18;68.90;;;27.13;;
51260;SDS011;61705;46.228;24.812;2022-11-28T03:55:16;108.82;;;30.15;;
51260;SDS011;61705;46.228;24.812;2022-11-28T04:00:19;73.43;;;26.13;;
51260;SDS011;61705;46.228;24.812;2022-11-28T04:05:26;65.25;;;27.13;;
51260;SDS011;61705;46.228;24.812;2022-11-28T04:10:43;64.40;;;27.08;;
51260;SDS011;61705;46.228;24.812;2022-11-28T04:13:24;51.80;;;23.25;;
51260;SDS011;61705;46.228;24.812;2022-11-28T04:16:03;58.83;;;25.38;;
51260;SDS011;61705;46.228;24.812;2022-11-28T04:24:10;59.90;;;25.20;;
51260;SDS011;61705;46.228;24.812;2022-11-28T04:26:42;59.10;;;27.15;;
51260;SDS011;61705;46.228;24.812;2022-11-28T04:31:44;55.85;;;25.65;;
51260;SDS011;61705;46.228;24.812;2022-11-28T04:34:13;56.08;;;25.65;;
51260;SDS011;61705;46.228;24.812;2022-11-28T04:36:42;56.63;;;24.73;;
51260;SDS011;61705;46.228;24.812;2022-11-28T04:39:12;63.88;;;30.10;;
51260;SDS011;61705;46.228;24.812;2022-11-28T04:41:53;64.78;;;28.10;;
51260;SDS011;61705;46.228;24.812;2022-11-28T04:47:16;65.72;;;25.52;;
51260;SDS011;61705;46.228;24.812;2022-11-28T04:49:52;64.88;;;25.10;;
51260;SDS011;61705;46.228;24.812;2022-11-28T04:56:03;68.93;;;26.67;;
51260;SDS011;61705;46.228;24.812;2022-11-28T05:00:44;64.05;;;26.05;;
51260;SDS011;61705;46.228;24.812;2022-11-28T05:03:13;59.63;;;21.50;;
51260;SDS011;61705;46.228;24.812;2022-11-28T05:05:41;71.45;;;28.02;;
51260;SDS011;61705;46.228;24.812;2022-11-28T05:08:13;63.92;;;25.58;;
51260;SDS011;61705;46.228;24.812;2022-11-28T05:10:49;68.55;;;26.63;;
51260;SDS011;61705;46.228;24.812;2022-11-28T05:13:18;55.50;;;24.85;;
51260;SDS011;61705;46.228;24.812;2022-11-28T05:15:45;51.35;;;23.42;;
51260;SDS011;61705;46.228;24.812;2022-11-28T05:18:11;54.70;;;20.25;;
51260;SDS011;61705;46.228;24.812;2022-11-28T05:20:38;61.78;;;25.40;;
51260;SDS011;61705;46.228;24.812;2022-11-28T05:23:05;49.38;;;21.38;;
51260;SDS011;61705;46.228;24.812;2022-11-28T05:25:32;53.58;;;22.83;;
51260;SDS011;61705;46.228;24.812;2022-11-28T05:27:59;60.28;;;24.08;;
51260;SDS011;61705;46.228;24.812;2022-11-28T05:30:25;60.88;;;24.85;;
51260;SDS011;61705;46.228;24.812;2022-11-28T05:32:52;70.63;;;28.38;;
51260;SDS011;61705;46.228;24.812;2022-11-28T05:35:19;58.13;;;23.77;;
51260;SDS011;61705;46.228;24.812;2022-11-28T05:37:45;55.40;;;24.10;;
51260;SDS011;61705;46.228;24.812;2022-11-28T05:40:12;46.60;;;20.60;;
51260;SDS011;61705;46.228;24.812;2022-11-28T05:42:39;56.47;;;24.95;;
51260;SDS011;61705;46.228;24.812;2022-11-28T05:45:05;69.47;;;28.98;;
51260;SDS011;61705;46.228;24.812;2022-11-28T05:47:32;60.10;;;24.73;;
51260;SDS011;61705;46.228;24.812;2022-11-28T05:49:59;59.65;;;24.65;;
51260;SDS011;61705;46.228;24.812;2022-11-28T05:52:27;73.10;;;27.52;;
51260;SDS011;61705;46.228;24.812;2022-11-28T05:54:54;65.43;;;27.15;;
51260;SDS011;61705;46.228;24.812;2022-11-28T05:57:23;65.20;;;27.30;;
51260;SDS011;61705;46.228;24.812;2022-11-28T05:59:50;58.42;;;23.13;;
51260;SDS011;61705;46.228;24.812;2022-11-28T06:02:16;64.07;;;23.75;;
51260;SDS011;61705;46.228;24.812;2022-11-28T06:04:43;71.43;;;27.75;;
51260;SDS011;61705;46.228;24.812;2022-11-28T06:07:10;54.25;;;22.77;;
51260;SDS011;61705;46.228;24.812;2022-11-28T06:09:37;56.40;;;21.55;;
51260;SDS011;61705;46.228;24.812;2022-11-28T06:12:03;64.45;;;24.70;;
51260;SDS011;61705;46.228;24.812;2022-11-28T06:14:31;61.53;;;24.92;;
51260;SDS011;61705;46.228;24.812;2022-11-28T06:16:58;65.40;;;22.98;;
51260;SDS011;61705;46.228;24.812;2022-11-28T06:19:24;60.92;;;23.02;;
51260;SDS011;61705;46.228;24.812;2022-11-28T06:21:51;51.58;;;22.25;;
51260;SDS011;61705;46.228;24.812;2022-11-28T06:24:18;62.47;;;24.27;;
51260;SDS011;61705;46.228;24.812;2022-11-28T06:26:44;56.28;;;24.48;;
51260;SDS011;61705;46.228;24.812;2022-11-28T06:29:11;81.28;;;28.77;;
51260;SDS011;61705;46.228;24.812;2022-11-28T06:31:38;77.00;;;26.35;;
51260;SDS011;61705;46.228;24.812;2022-11-28T06:34:05;75.93;;;29.30;;
51260;SDS011;61705;46.228;24.812;2022-11-28T06:36:32;71.75;;;27.45;;
51260;SDS011;61705;46.228;24.812;2022-11-28T06:39:00;72.95;;;31.52;;
51260;SDS011;61705;46.228;24.812;2022-11-28T06:41:26;73.82;;;27.40;;
51260;SDS011;61705;46.228;24.812;2022-11-28T06:43:54;73.28;;;26.40;;
51260;SDS011;61705;46.228;24.812;2022-11-28T06:46:22;75.55;;;27.38;;
51260;SDS011;61705;46.228;24.812;2022-11-28T06:48:49;67.75;;;24.83;;
51260;SDS011;61705;46.228;24.812;2022-11-28T06:51:17;66.65;;;25.77;;
51260;SDS011;61705;46.228;24.812;2022-11-28T06:53:45;51.60;;;22.50;;
51260;SDS011;61705;46.228;24.812;2022-11-28T06:56:13;82.25;;;32.00;;
51260;SDS011;61705;46.228;24.812;2022-11-28T06:58:43;62.95;;;24.23;;
51260;SDS011;61705;46.228;24.812;2022-11-28T07:01:12;56.40;;;20.80;;
51260;SDS011;61705;46.228;24.812;2022-11-28T07:03:41;58.30;;;22.80;;
51260;SDS011;61705;46.228;24.812;2022-11-28T07:06:09;56.92;;;22.52;;
51260;SDS011;61705;46.228;24.812;2022-11-28T07:08:36;67.25;;;25.85;;
51260;SDS011;61705;46.228;24.812;2022-11-28T07:13:38;65.82;;;30.08;;
51260;SDS011;61705;46.228;24.812;2022-11-28T07:16:05;89.82;;;28.02;;
51260;SDS011;61705;46.228;24.812;2022-11-28T07:18:33;62.67;;;24.42;;
51260;SDS011;61705;46.228;24.812;2022-11-28T07:21:00;70.38;;;22.23;;
51260;SDS011;61705;46.228;24.812;2022-11-28T07:23:27;48.92;;;20.30;;
51260;SDS011;61705;46.228;24.812;2022-11-28T07:25:58;61.85;;;23.60;;
51260;SDS011;61705;46.228;24.812;2022-11-28T07:28:26;62.53;;;22.17;;
51260;SDS011;61705;46.228;24.812;2022-11-28T07:31:04;52.20;;;22.13;;
51260;SDS011;61705;46.228;24.812;2022-11-28T07:33:33;56.22;;;21.50;;
51260;SDS011;61705;46.228;24.812;2022-11-28T07:36:04;48.67;;;20.92;;
51260;SDS011;61705;46.228;24.812;2022-11-28T07:38:32;59.38;;;24.67;;
51260;SDS011;61705;46.228;24.812;2022-11-28T07:41:06;57.38;;;18.98;;
51260;SDS011;61705;46.228;24.812;2022-11-28T07:43:41;58.35;;;24.00;;
51260;SDS011;61705;46.228;24.812;2022-11-28T07:46:10;71.13;;;26.67;;
51260;SDS011;61705;46.228;24.812;2022-11-28T07:48:40;59.05;;;23.83;;
51260;SDS011;61705;46.228;24.812;2022-11-28T07:51:08;52.05;;;23.05;;
51260;SDS011;61705;46.228;24.812;2022-11-28T07:53:36;67.00;;;23.98;;
51260;SDS011;61705;46.228;24.812;2022-11-28T07:56:05;44.88;;;19.92;;
51260;SDS011;61705;46.228;24.812;2022-11-28T07:58:34;46.55;;;19.17;;
51260;SDS011;61705;46.228;24.812;2022-11-28T08:01:08;64.53;;;20.33;;
51260;SDS011;61705;46.228;24.812;2022-11-28T08:03:42;59.60;;;20.60;;
51260;SDS011;61705;46.228;24.812;2022-11-28T08:06:15;47.67;;;18.35;;
51260;SDS011;61705;46.228;24.812;2022-11-28T08:08:44;65.45;;;22.80;;
51260;SDS011;61705;46.228;24.812;2022-11-28T08:11:12;42.20;;;17.88;;
51260;SDS011;61705;46.228;24.812;2022-11-28T08:13:40;58.25;;;21.30;;
51260;SDS011;61705;46.228;24.812;2022-11-28T08:16:17;77.97;;;24.25;;
51260;SDS011;61705;46.228;24.812;2022-11-28T08:18:46;56.58;;;20.63;;
51260;SDS011;61705;46.228;24.812;2022-11-28T08:21:15;51.88;;;19.60;;
51260;SDS011;61705;46.228;24.812;2022-11-28T08:23:51;51.55;;;20.90;;
51260;SDS011;61705;46.228;24.812;2022-11-28T08:26:20;57.53;;;21.50;;
51260;SDS011;61705;46.228;24.812;2022-11-28T08:28:55;57.03;;;24.15;;
51260;SDS011;61705;46.228;24.812;2022-11-28T08:31:23;66.93;;;22.13;;
51260;SDS011;61705;46.228;24.812;2022-11-28T08:33:52;55.25;;;22.05;;
51260;SDS011;61705;46.228;24.812;2022-11-28T08:36:20;55.25;;;21.08;;
51260;SDS011;61705;46.228;24.812;2022-11-28T08:38:48;59.13;;;22.13;;
51260;SDS011;61705;46.228;24.812;2022-11-28T08:41:34;64.32;;;22.08;;
51260;SDS011;61705;46.228;24.812;2022-11-28T08:44:01;49.72;;;21.30;;
51260;SDS011;61705;46.228;24.812;2022-11-28T08:46:28;51.10;;;20.05;;
51260;SDS011;61705;46.228;24.812;2022-11-28T08:48:55;52.47;;;22.70;;
51260;SDS011;61705;46.228;24.812;2022-11-28T08:51:22;55.65;;;19.90;;
51260;SDS011;61705;46.228;24.812;2022-11-28T08:53:49;90.35;;;32.40;;
51260;SDS011;61705;46.228;24.812;2022-11-28T08:56:23;52.33;;;20.20;;
51260;SDS011;61705;46.228;24.812;2022-11-28T08:58:49;55.60;;;23.00;;
51260;SDS011;61705;46.228;24.812;2022-11-28T09:01:20;51.35;;;21.10;;
51260;SDS011;61705;46.228;24.812;2022-11-28T09:03:49;52.05;;;20.13;;
51260;SDS011;61705;46.228;24.812;2022-11-28T09:06:16;57.65;;;19.23;;
51260;SDS011;61705;46.228;24.812;2022-11-28T09:08:43;52.58;;;21.08;;
51260;SDS011;61705;46.228;24.812;2022-11-28T09:11:12;61.63;;;20.05;;
51260;SDS011;61705;46.228;24.812;2022-11-28T09:13:40;68.18;;;23.77;;
51260;SDS011;61705;46.228;24.812;2022-11-28T09:16:07;61.08;;;21.40;;
51260;SDS011;61705;46.228;24.812;2022-11-28T09:18:34;51.13;;;21.73;;
51260;SDS011;61705;46.228;24.812;2022-11-28T09:21:06;53.65;;;20.95;;
51260;SDS011;61705;46.228;24.812;2022-11-28T09:23:35;48.83;;;21.60;;
51260;SDS011;61705;46.228;24.812;2022-11-28T09:26:13;70.15;;;29.20;;
51260;SDS011;61705;46.228;24.812;2022-11-28T09:28:41;64.28;;;22.08;;
51260;SDS011;61705;46.228;24.812;2022-11-28T09:31:08;70.63;;;27.20;;
51260;SDS011;61705;46.228;24.812;2022-11-28T09:33:37;63.92;;;26.60;;
51260;SDS011;61705;46.228;24.812;2022-11-28T09:36:05;62.58;;;25.88;;
51260;SDS011;61705;46.228;24.812;2022-11-28T09:38:33;73.85;;;26.08;;
51260;SDS011;61705;46.228;24.812;2022-11-28T09:41:00;58.28;;;23.42;;
51260;SDS011;61705;46.228;24.812;2022-11-28T09:45:54;74.95;;;27.23;;
51260;SDS011;61705;46.228;24.812;2022-11-28T09:48:31;50.40;;;19.48;;
51260;SDS011;61705;46.228;24.812;2022-11-28T09:51:03;49.97;;;20.92;;
51260;SDS011;61705;46.228;24.812;2022-11-28T09:53:42;54.22;;;20.48;;
51260;SDS011;61705;46.228;24.812;2022-11-28T09:56:30;53.03;;;23.38;;
51260;SDS011;61705;46.228;24.812;2022-11-28T09:58:58;65.60;;;26.27;;
51260;SDS011;61705;46.228;24.812;2022-11-28T10:06:34;50.35;;;22.52;;
51260;SDS011;61705;46.228;24.812;2022-11-28T10:09:20;45.63;;;18.88;;
51260;SDS011;61705;46.228;24.812;2022-11-28T10:12:36;59.55;;;19.75;;
51260;SDS011;61705;46.228;24.812;2022-11-28T10:20:41;50.03;;;17.88;;
51260;SDS011;61705;46.228;24.812;2022-11-28T10:25:54;47.58;;;18.00;;
51260;SDS011;61705;46.228;24.812;2022-11-28T10:28:29;55.85;;;20.88;;
51260;SDS011;61705;46.228;24.812;2022-11-28T10:39:20;54.22;;;20.05;;
51260;SDS011;61705;46.228;24.812;2022-11-28T10:41:57;56.55;;;21.13;;
51260;SDS011;61705;46.228;24.812;2022-11-28T10:47:29;47.05;;;20.13;;
51260;SDS011;61705;46.228;24.812;2022-11-28T10:58:22;65.05;;;23.85;;
51260;SDS011;61705;46.228;24.812;2022-11-28T11:00:55;70.95;;;20.95;;
51260;SDS011;61705;46.228;24.812;2022-11-28T11:03:28;58.33;;;19.65;;
51260;SDS011;61705;46.228;24.812;2022-11-28T11:05:58;52.88;;;20.20;;
51260;SDS011;61705;46.228;24.812;2022-11-28T11:08:26;65.28;;;22.17;;
51260;SDS011;61705;46.228;24.812;2022-11-28T11:16:47;54.97;;;18.65;;
51260;SDS011;61705;46.228;24.812;2022-11-28T11:19:24;50.35;;;17.55;;
51260;SDS011;61705;46.228;24.812;2022-11-28T11:22:37;59.72;;;24.48;;
51260;SDS011;61705;46.228;24.812;2022-11-28T11:27:45;57.60;;;18.60;;
51260;SDS011;61705;46.228;24.812;2022-11-28T11:30:15;49.45;;;18.38;;
51260;SDS011;61705;46.228;24.812;2022-11-28T11:32:52;37.88;;;16.98;;
51260;SDS011;61705;46.228;24.812;2022-11-28T11:35:33;47.63;;;18.75;;
51260;SDS011;61705;46.228;24.812;2022-11-28T11:38:24;59.45;;;18.60;;
51260;SDS011;61705;46.228;24.812;2022-11-28T11:41:18;60.95;;;17.05;;
51260;SDS011;61705;46.228;24.812;2022-11-28T11:43:55;40.90;;;14.98;;
51260;SDS011;61705;46.228;24.812;2022-11-28T11:52:22;47.80;;;18.95;;
51260;SDS011;61705;46.228;24.812;2022-11-28T11:57:31;46.75;;;17.48;;
51260;SDS011;61705;46.228;24.812;2022-11-28T12:02:58;49.72;;;17.02;;
51260;SDS011;61705;46.228;24.812;2022-11-28T12:05:26;39.70;;;15.75;;
51260;SDS011;61705;46.228;24.812;2022-11-28T12:08:33;57.53;;;17.88;;
51260;SDS011;61705;46.228;24.812;2022-11-28T12:13:44;37.05;;;16.58;;
51260;SDS011;61705;46.228;24.812;2022-11-28T12:22:06;52.83;;;15.85;;
51260;SDS011;61705;46.228;24.812;2022-11-28T12:24:41;71.78;;;19.80;;
51260;SDS011;61705;46.228;24.812;2022-11-28T12:27:39;47.13;;;17.77;;
51260;SDS011;61705;46.228;24.812;2022-11-28T12:30:37;36.80;;;13.65;;
51260;SDS011;61705;46.228;24.812;2022-11-28T12:35:51;45.80;;;16.40;;
51260;SDS011;61705;46.228;24.812;2022-11-28T12:41:06;39.85;;;14.77;;
51260;SDS011;61705;46.228;24.812;2022-11-28T12:49:09;34.20;;;10.15;;
51260;SDS011;61705;46.228;24.812;2022-11-28T13:00:18;18.42;;;6.72;;
51260;SDS011;61705;46.228;24.812;2022-11-28T13:02:50;26.50;;;9.13;;
51260;SDS011;61705;46.228;24.812;2022-11-28T13:08:44;23.52;;;8.77;;
51260;SDS011;61705;46.228;24.812;2022-11-28T13:14:03;27.27;;;8.25;;
51260;SDS011;61705;46.228;24.812;2022-11-28T13:19:23;25.30;;;8.75;;
51260;SDS011;61705;46.228;24.812;2022-11-28T13:22:17;16.85;;;7.10;;
51260;SDS011;61705;46.228;24.812;2022-11-28T13:27:59;31.08;;;11.65;;
51260;SDS011;61705;46.228;24.812;2022-11-28T13:30:50;27.25;;;9.13;;
51260;SDS011;61705;46.228;24.812;2022-11-28T13:33:44;20.15;;;7.40;;
51260;SDS011;61705;46.228;24.812;2022-11-28T13:36:39;21.67;;;8.63;;
51260;SDS011;61705;46.228;24.812;2022-11-28T13:41:58;23.15;;;6.85;;
51260;SDS011;61705;46.228;24.812;2022-11-28T13:48:57;15.65;;;5.78;;
51260;SDS011;61705;46.228;24.812;2022-11-28T13:51:21;24.52;;;7.03;;
51260;SDS011;61705;46.228;24.812;2022-11-28T13:57:13;31.27;;;11.23;;
51260;SDS011;61705;46.228;24.812;2022-11-28T14:02:54;52.13;;;18.30;;
51260;SDS011;61705;46.228;24.812;2022-11-28T14:05:37;65.50;;;23.05;;
51260;SDS011;61705;46.228;24.812;2022-11-28T14:08:07;53.65;;;20.35;;
51260;SDS011;61705;46.228;24.812;2022-11-28T14:16:13;47.08;;;19.33;;
51260;SDS011;61705;46.228;24.812;2022-11-28T14:19:08;41.70;;;16.42;;
51260;SDS011;61705;46.228;24.812;2022-11-28T14:27:33;31.40;;;12.43;;
51260;SDS011;61705;46.228;24.812;2022-11-28T14:30:03;34.97;;;10.27;;
51260;SDS011;61705;46.228;24.812;2022-11-28T14:32:35;25.73;;;9.95;;
51260;SDS011;61705;46.228;24.812;2022-11-28T14:35:10;29.70;;;12.57;;
51260;SDS011;61705;46.228;24.812;2022-11-28T14:37:52;35.97;;;9.38;;
51260;SDS011;61705;46.228;24.812;2022-11-28T14:40:59;39.13;;;12.32;;
51260;SDS011;61705;46.228;24.812;2022-11-28T14:45:49;30.02;;;8.85;;
51260;SDS011;61705;46.228;24.812;2022-11-28T14:48:20;27.27;;;9.65;;
51260;SDS011;61705;46.228;24.812;2022-11-28T14:50:54;14.52;;;6.57;;
51260;SDS011;61705;46.228;24.812;2022-11-28T14:58:46;40.95;;;12.18;;
51260;SDS011;61705;46.228;24.812;2022-11-28T15:01:18;43.45;;;12.57;;
51260;SDS011;61705;46.228;24.812;2022-11-28T15:06:57;41.15;;;13.80;;
51260;SDS011;61705;46.228;24.812;2022-11-28T15:12:00;35.60;;;12.98;;
51260;SDS011;61705;46.228;24.812;2022-11-28T15:14:36;51.22;;;14.77;;
51260;SDS011;61705;46.228;24.812;2022-11-28T15:17:04;43.53;;;12.88;;
51260;SDS011;61705;46.228;24.812;2022-11-28T15:19:38;33.28;;;11.77;;
51260;SDS011;61705;46.228;24.812;2022-11-28T15:25:05;66.43;;;29.40;;
51260;SDS011;61705;46.228;24.812;2022-11-28T15:27:46;49.22;;;17.90;;
51260;SDS011;61705;46.228;24.812;2022-11-28T15:30:14;38.58;;;14.80;;
51260;SDS011;61705;46.228;24.812;2022-11-28T15:32:43;30.70;;;11.38;;
51260;SDS011;61705;46.228;24.812;2022-11-28T15:35:11;23.73;;;9.50;;
51260;SDS011;61705;46.228;24.812;2022-11-28T15:37:50;30.15;;;11.25;;
51260;SDS011;61705;46.228;24.812;2022-11-28T15:40:20;46.58;;;13.27;;
51260;SDS011;61705;46.228;24.812;2022-11-28T15:42:51;38.92;;;12.40;;
51260;SDS011;61705;46.228;24.812;2022-11-28T15:45:28;50.40;;;17.10;;
51260;SDS011;61705;46.228;24.812;2022-11-28T15:47:57;68.22;;;23.13;;
51260;SDS011;61705;46.228;24.812;2022-11-28T15:50:25;67.88;;;27.42;;
51260;SDS011;61705;46.228;24.812;2022-11-28T15:55:29;86.32;;;35.95;;
51260;SDS011;61705;46.228;24.812;2022-11-28T15:58:10;71.90;;;25.27;;
51260;SDS011;61705;46.228;24.812;2022-11-28T16:00:43;68.50;;;27.95;;
51260;SDS011;61705;46.228;24.812;2022-11-28T16:03:19;58.00;;;21.70;;
51260;SDS011;61705;46.228;24.812;2022-11-28T16:05:49;50.58;;;19.20;;
51260;SDS011;61705;46.228;24.812;2022-11-28T16:08:24;80.57;;;32.60;;
51260;SDS011;61705;46.228;24.812;2022-11-28T16:10:54;79.65;;;31.65;;
51260;SDS011;61705;46.228;24.812;2022-11-28T16:13:22;74.68;;;30.17;;
51260;SDS011;61705;46.228;24.812;2022-11-28T16:15:50;77.10;;;29.27;;
51260;SDS011;61705;46.228;24.812;2022-11-28T16:18:21;69.18;;;27.40;;
51260;SDS011;61705;46.228;24.812;2022-11-28T16:20:48;63.78;;;26.65;;
51260;SDS011;61705;46.228;24.812;2022-11-28T16:23:19;59.97;;;25.67;;
51260;SDS011;61705;46.228;24.812;2022-11-28T16:26:27;52.88;;;24.10;;
51260;SDS011;61705;46.228;24.812;2022-11-28T16:34:00;68.72;;;23.80;;
51260;SDS011;61705;46.228;24.812;2022-11-28T16:39:12;70.07;;;31.42;;
51260;SDS011;61705;46.228;24.812;2022-11-28T16:44:39;59.67;;;24.95;;
51260;SDS011;61705;46.228;24.812;2022-11-28T16:47:06;70.18;;;26.05;;
51260;SDS011;61705;46.228;24.812;2022-11-28T16:50:10;75.40;;;26.85;;
51260;SDS011;61705;46.228;24.812;2022-11-28T16:52:49;93.20;;;31.75;;
51260;SDS011;61705;46.228;24.812;2022-11-28T16:58:01;66.40;;;24.80;;
51260;SDS011;61705;46.228;24.812;2022-11-28T17:00:37;73.57;;;26.15;;
51260;SDS011;61705;46.228;24.812;2022-11-28T17:03:05;90.35;;;27.40;;
51260;SDS011;61705;46.228;24.812;2022-11-28T17:05:38;66.82;;;27.20;;
51260;SDS011;61705;46.228;24.812;2022-11-28T17:08:47;73.22;;;28.00;;
51260;SDS011;61705;46.228;24.812;2022-11-28T17:10:55;80.55;;;32.45;;
51260;SDS011;61705;46.228;24.812;2022-11-28T17:13:22;141.77;;;41.42;;
51260;SDS011;61705;46.228;24.812;2022-11-28T17:15:49;90.13;;;30.60;;
51260;SDS011;61705;46.228;24.812;2022-11-28T17:18:15;91.72;;;33.97;;
51260;SDS011;61705;46.228;24.812;2022-11-28T17:20:42;121.43;;;43.20;;
51260;SDS011;61705;46.228;24.812;2022-11-28T17:23:12;121.70;;;46.95;;
51260;SDS011;61705;46.228;24.812;2022-11-28T17:25:40;114.82;;;40.75;;
51260;SDS011;61705;46.228;24.812;2022-11-28T17:28:07;129.95;;;41.88;;
51260;SDS011;61705;46.228;24.812;2022-11-28T17:30:34;115.07;;;39.72;;
51260;SDS011;61705;46.228;24.812;2022-11-28T17:33:01;99.45;;;35.70;;
51260;SDS011;61705;46.228;24.812;2022-11-28T17:35:31;83.30;;;31.00;;
51260;SDS011;61705;46.228;24.812;2022-11-28T17:38:01;62.47;;;23.98;;
51260;SDS011;61705;46.228;24.812;2022-11-28T17:40:28;80.40;;;29.55;;
51260;SDS011;61705;46.228;24.812;2022-11-28T17:43:02;57.55;;;21.02;;
51260;SDS011;61705;46.228;24.812;2022-11-28T17:45:29;60.88;;;23.88;;
51260;SDS011;61705;46.228;24.812;2022-11-28T17:48:02;58.97;;;24.73;;
51260;SDS011;61705;46.228;24.812;2022-11-28T17:50:29;76.90;;;29.52;;
51260;SDS011;61705;46.228;24.812;2022-11-28T17:52:55;74.88;;;27.15;;
51260;SDS011;61705;46.228;24.812;2022-11-28T17:55:22;77.72;;;28.38;;
51260;SDS011;61705;46.228;24.812;2022-11-28T17:57:49;83.15;;;29.05;;
51260;SDS011;61705;46.228;24.812;2022-11-28T18:00:16;92.07;;;31.48;;
51260;SDS011;61705;46.228;24.812;2022-11-28T18:02:43;86.45;;;32.88;;
51260;SDS011;61705;46.228;24.812;2022-11-28T18:05:20;82.90;;;32.55;;
51260;SDS011;61705;46.228;24.812;2022-11-28T18:07:46;87.03;;;33.67;;
51260;SDS011;61705;46.228;24.812;2022-11-28T18:10:16;86.03;;;31.00;;
51260;SDS011;61705;46.228;24.812;2022-11-28T18:12:43;72.25;;;30.85;;
51260;SDS011;61705;46.228;24.812;2022-11-28T18:15:10;69.30;;;29.17;;
51260;SDS011;61705;46.228;24.812;2022-11-28T18:17:36;66.45;;;27.90;;
51260;SDS011;61705;46.228;24.812;2022-11-28T18:20:06;89.80;;;34.72;;
51260;SDS011;61705;46.228;24.812;2022-11-28T18:22:33;76.07;;;25.40;;
51260;SDS011;61705;46.228;24.812;2022-11-28T18:25:00;48.92;;;21.50;;